sensor_id;sensor_type;location;lat;lon;timestamp;P1;durP1;ratioP1;P2;durP2;ratioP2
73940;SDS011;62294;48.554;10.202;2023-03-23T00:02:28;3.38;;;2.35;;
73940;SDS011;62294;48.554;10.202;2023-03-23T00:05:01;7.78;;;2.42;;
73940;SDS011;62294;48.554;10.202;2023-03-23T00:07:28;3.38;;;1.98;;
73940;SDS011;62294;48.554;10.202;2023-03-23T00:09:54;4.20;;;2.03;;
73940;SDS011;62294;48.554;10.202;2023-03-23T00:12:24;4.75;;;2.40;;
73940;SDS011;62294;48.554;10.202;2023-03-23T00:14:58;3.10;;;1.73;;
73940;SDS011;62294;48.554;10.202;2023-03-23T00:17:26;3.50;;;1.92;;
73940;SDS011;62294;48.554;10.202;2023-03-23T00:19:52;4.03;;;2.00;;
73940;SDS011;62294;48.554;10.202;2023-03-23T00:22:18;5.57;;;2.38;;
73940;SDS011;62294;48.554;10.202;2023-03-23T00:24:47;3.40;;;1.90;;
73940;SDS011;62294;48.554;10.202;2023-03-23T00:27:15;5.53;;;2.85;;
73940;SDS011;62294;48.554;10.202;2023-03-23T00:29:41;4.75;;;2.92;;
73940;SDS011;62294;48.554;10.202;2023-03-23T00:32:08;8.57;;;4.18;;
73940;SDS011;62294;48.554;10.202;2023-03-23T00:34:39;7.28;;;4.10;;
73940;SDS011;62294;48.554;10.202;2023-03-23T00:37:05;8.55;;;4.18;;
73940;SDS011;62294;48.554;10.202;2023-03-23T00:39:31;7.07;;;3.67;;
73940;SDS011;62294;48.554;10.202;2023-03-23T00:41:56;7.20;;;3.85;;
73940;SDS011;62294;48.554;10.202;2023-03-23T00:44:29;8.18;;;4.10;;
73940;SDS011;62294;48.554;10.202;2023-03-23T00:46:57;8.00;;;3.63;;
73940;SDS011;62294;48.554;10.202;2023-03-23T00:49:24;8.20;;;4.13;;
73940;SDS011;62294;48.554;10.202;2023-03-23T00:51:54;8.05;;;3.92;;
73940;SDS011;62294;48.554;10.202;2023-03-23T00:54:22;7.55;;;4.13;;
73940;SDS011;62294;48.554;10.202;2023-03-23T00:56:49;8.80;;;4.78;;
73940;SDS011;62294;48.554;10.202;2023-03-23T00:59:15;9.00;;;4.97;;
73940;SDS011;62294;48.554;10.202;2023-03-23T01:01:41;13.02;;;7.65;;
73940;SDS011;62294;48.554;10.202;2023-03-23T01:04:07;14.73;;;6.85;;
73940;SDS011;62294;48.554;10.202;2023-03-23T01:06:34;12.55;;;6.68;;
73940;SDS011;62294;48.554;10.202;2023-03-23T01:09:04;11.13;;;5.68;;
73940;SDS011;62294;48.554;10.202;2023-03-23T01:11:31;8.57;;;5.35;;
73940;SDS011;62294;48.554;10.202;2023-03-23T01:13:57;8.68;;;5.55;;
73940;SDS011;62294;48.554;10.202;2023-03-23T01:16:23;8.60;;;5.05;;
73940;SDS011;62294;48.554;10.202;2023-03-23T01:18:49;12.40;;;5.20;;
73940;SDS011;62294;48.554;10.202;2023-03-23T01:21:16;10.27;;;5.18;;
73940;SDS011;62294;48.554;10.202;2023-03-23T01:23:44;9.55;;;5.00;;
73940;SDS011;62294;48.554;10.202;2023-03-23T01:26:11;9.20;;;5.30;;
73940;SDS011;62294;48.554;10.202;2023-03-23T01:28:38;13.40;;;7.70;;
73940;SDS011;62294;48.554;10.202;2023-03-23T01:31:05;21.35;;;10.80;;
73940;SDS011;62294;48.554;10.202;2023-03-23T01:33:33;26.02;;;12.88;;
73940;SDS011;62294;48.554;10.202;2023-03-23T01:36:03;24.58;;;13.10;;
73940;SDS011;62294;48.554;10.202;2023-03-23T01:38:34;33.42;;;17.08;;
73940;SDS011;62294;48.554;10.202;2023-03-23T01:41:00;27.05;;;14.48;;
73940;SDS011;62294;48.554;10.202;2023-03-23T01:43:27;26.88;;;13.95;;
73940;SDS011;62294;48.554;10.202;2023-03-23T01:45:53;34.35;;;16.23;;
73940;SDS011;62294;48.554;10.202;2023-03-23T01:48:23;24.48;;;12.65;;
73940;SDS011;62294;48.554;10.202;2023-03-23T01:51:09;19.60;;;10.20;;
73940;SDS011;62294;48.554;10.202;2023-03-23T01:53:45;16.65;;;8.82;;
73940;SDS011;62294;48.554;10.202;2023-03-23T01:56:15;13.50;;;7.75;;
73940;SDS011;62294;48.554;10.202;2023-03-23T01:58:44;8.55;;;6.10;;
73940;SDS011;62294;48.554;10.202;2023-03-23T02:01:11;12.60;;;7.28;;
73940;SDS011;62294;48.554;10.202;2023-03-23T02:03:41;17.70;;;8.80;;
73940;SDS011;62294;48.554;10.202;2023-03-23T02:06:10;22.55;;;9.15;;
73940;SDS011;62294;48.554;10.202;2023-03-23T02:08:36;19.60;;;10.57;;
73940;SDS011;62294;48.554;10.202;2023-03-23T02:11:11;19.95;;;10.73;;
73940;SDS011;62294;48.554;10.202;2023-03-23T02:13:39;18.20;;;10.55;;
73940;SDS011;62294;48.554;10.202;2023-03-23T02:16:08;15.63;;;8.13;;
73940;SDS011;62294;48.554;10.202;2023-03-23T02:18:42;15.48;;;7.63;;
73940;SDS011;62294;48.554;10.202;2023-03-23T02:24:10;19.40;;;8.82;;
73940;SDS011;62294;48.554;10.202;2023-03-23T02:34:52;19.98;;;9.73;;
73940;SDS011;62294;48.554;10.202;2023-03-23T02:37:31;18.50;;;9.23;;
73940;SDS011;62294;48.554;10.202;2023-03-23T02:42:42;17.08;;;6.97;;
73940;SDS011;62294;48.554;10.202;2023-03-23T02:45:10;14.35;;;7.82;;
73940;SDS011;62294;48.554;10.202;2023-03-23T02:47:38;14.18;;;7.25;;
73940;SDS011;62294;48.554;10.202;2023-03-23T02:50:07;8.63;;;5.45;;
73940;SDS011;62294;48.554;10.202;2023-03-23T02:52:37;13.23;;;6.32;;
73940;SDS011;62294;48.554;10.202;2023-03-23T02:55:05;8.02;;;5.30;;
73940;SDS011;62294;48.554;10.202;2023-03-23T02:57:33;10.10;;;6.28;;
73940;SDS011;62294;48.554;10.202;2023-03-23T03:00:00;16.48;;;6.63;;
73940;SDS011;62294;48.554;10.202;2023-03-23T03:02:33;18.73;;;8.35;;
73940;SDS011;62294;48.554;10.202;2023-03-23T03:13:29;22.15;;;8.55;;
73940;SDS011;62294;48.554;10.202;2023-03-23T03:18:49;22.42;;;10.38;;
73940;SDS011;62294;48.554;10.202;2023-03-23T03:21:21;19.42;;;8.05;;
73940;SDS011;62294;48.554;10.202;2023-03-23T03:23:50;17.65;;;9.55;;
73940;SDS011;62294;48.554;10.202;2023-03-23T03:26:21;26.13;;;12.10;;
73940;SDS011;62294;48.554;10.202;2023-03-23T03:28:51;25.23;;;10.35;;
73940;SDS011;62294;48.554;10.202;2023-03-23T03:31:18;21.55;;;11.05;;
73940;SDS011;62294;48.554;10.202;2023-03-23T03:33:47;23.08;;;11.23;;
73940;SDS011;62294;48.554;10.202;2023-03-23T03:36:18;20.95;;;9.88;;
73940;SDS011;62294;48.554;10.202;2023-03-23T03:38:49;30.67;;;12.65;;
73940;SDS011;62294;48.554;10.202;2023-03-23T03:41:15;36.58;;;16.50;;
73940;SDS011;62294;48.554;10.202;2023-03-23T03:43:42;26.15;;;13.65;;
73940;SDS011;62294;48.554;10.202;2023-03-23T03:46:08;26.50;;;12.20;;
73940;SDS011;62294;48.554;10.202;2023-03-23T03:48:33;29.45;;;15.63;;
73940;SDS011;62294;48.554;10.202;2023-03-23T03:50:59;29.17;;;15.52;;
73940;SDS011;62294;48.554;10.202;2023-03-23T03:53:26;24.80;;;12.95;;
73940;SDS011;62294;48.554;10.202;2023-03-23T03:55:51;21.42;;;11.52;;
73940;SDS011;62294;48.554;10.202;2023-03-23T03:58:21;27.23;;;13.57;;
73940;SDS011;62294;48.554;10.202;2023-03-23T04:00:47;18.20;;;10.52;;
73940;SDS011;62294;48.554;10.202;2023-03-23T04:03:13;23.77;;;12.68;;
73940;SDS011;62294;48.554;10.202;2023-03-23T04:05:40;23.65;;;12.73;;
73940;SDS011;62294;48.554;10.202;2023-03-23T04:08:06;18.63;;;9.05;;
73940;SDS011;62294;48.554;10.202;2023-03-23T04:10:32;14.95;;;8.88;;
73940;SDS011;62294;48.554;10.202;2023-03-23T04:12:58;16.73;;;7.90;;
73940;SDS011;62294;48.554;10.202;2023-03-23T04:15:24;11.30;;;6.55;;
73940;SDS011;62294;48.554;10.202;2023-03-23T04:17:51;10.63;;;6.13;;
73940;SDS011;62294;48.554;10.202;2023-03-23T04:20:17;11.95;;;6.32;;
73940;SDS011;62294;48.554;10.202;2023-03-23T04:22:46;11.90;;;6.40;;
73940;SDS011;62294;48.554;10.202;2023-03-23T04:25:14;8.85;;;5.00;;
73940;SDS011;62294;48.554;10.202;2023-03-23T04:27:42;9.00;;;4.95;;
73940;SDS011;62294;48.554;10.202;2023-03-23T04:30:11;7.50;;;4.60;;
73940;SDS011;62294;48.554;10.202;2023-03-23T04:32:38;6.63;;;3.92;;
73940;SDS011;62294;48.554;10.202;2023-03-23T04:35:12;8.32;;;4.38;;
73940;SDS011;62294;48.554;10.202;2023-03-23T04:37:39;9.43;;;5.22;;
73940;SDS011;62294;48.554;10.202;2023-03-23T04:40:06;8.60;;;4.53;;
73940;SDS011;62294;48.554;10.202;2023-03-23T04:42:37;8.30;;;5.03;;
73940;SDS011;62294;48.554;10.202;2023-03-23T04:45:04;9.38;;;5.30;;
73940;SDS011;62294;48.554;10.202;2023-03-23T04:47:35;9.07;;;3.97;;
73940;SDS011;62294;48.554;10.202;2023-03-23T04:50:14;11.38;;;5.10;;
73940;SDS011;62294;48.554;10.202;2023-03-23T04:52:40;7.65;;;4.20;;
73940;SDS011;62294;48.554;10.202;2023-03-23T04:55:10;8.80;;;4.55;;
73940;SDS011;62294;48.554;10.202;2023-03-23T04:57:38;10.05;;;5.72;;
73940;SDS011;62294;48.554;10.202;2023-03-23T05:00:04;9.45;;;4.97;;
73940;SDS011;62294;48.554;10.202;2023-03-23T05:02:37;8.18;;;4.53;;
73940;SDS011;62294;48.554;10.202;2023-03-23T05:05:07;10.32;;;4.88;;
73940;SDS011;62294;48.554;10.202;2023-03-23T05:07:33;9.25;;;5.00;;
73940;SDS011;62294;48.554;10.202;2023-03-23T05:09:59;8.85;;;5.15;;
73940;SDS011;62294;48.554;10.202;2023-03-23T05:12:25;8.20;;;4.55;;
73940;SDS011;62294;48.554;10.202;2023-03-23T05:14:50;10.10;;;4.97;;
73940;SDS011;62294;48.554;10.202;2023-03-23T05:17:15;9.20;;;4.95;;
73940;SDS011;62294;48.554;10.202;2023-03-23T05:19:42;7.93;;;4.88;;
73940;SDS011;62294;48.554;10.202;2023-03-23T05:22:12;13.18;;;5.55;;
73940;SDS011;62294;48.554;10.202;2023-03-23T05:24:39;16.08;;;8.85;;
73940;SDS011;62294;48.554;10.202;2023-03-23T05:27:05;12.93;;;7.18;;
73940;SDS011;62294;48.554;10.202;2023-03-23T05:29:33;10.43;;;6.00;;
73940;SDS011;62294;48.554;10.202;2023-03-23T05:32:01;10.43;;;5.68;;
73940;SDS011;62294;48.554;10.202;2023-03-23T05:34:29;11.70;;;6.43;;
73940;SDS011;62294;48.554;10.202;2023-03-23T05:36:57;9.82;;;6.18;;
73940;SDS011;62294;48.554;10.202;2023-03-23T05:39:23;12.85;;;6.95;;
73940;SDS011;62294;48.554;10.202;2023-03-23T05:41:50;16.88;;;8.18;;
73940;SDS011;62294;48.554;10.202;2023-03-23T05:44:15;13.85;;;7.10;;
73940;SDS011;62294;48.554;10.202;2023-03-23T05:46:41;16.65;;;7.88;;
73940;SDS011;62294;48.554;10.202;2023-03-23T05:49:08;15.90;;;7.70;;
73940;SDS011;62294;48.554;10.202;2023-03-23T05:51:34;18.25;;;7.72;;
73940;SDS011;62294;48.554;10.202;2023-03-23T05:54:00;14.20;;;7.57;;
73940;SDS011;62294;48.554;10.202;2023-03-23T05:56:25;17.55;;;8.50;;
73940;SDS011;62294;48.554;10.202;2023-03-23T05:58:51;24.10;;;9.23;;
73940;SDS011;62294;48.554;10.202;2023-03-23T06:01:17;25.15;;;9.57;;
73940;SDS011;62294;48.554;10.202;2023-03-23T06:03:43;20.20;;;9.85;;
73940;SDS011;62294;48.554;10.202;2023-03-23T06:06:12;18.20;;;8.77;;
73940;SDS011;62294;48.554;10.202;2023-03-23T06:08:38;21.67;;;9.00;;
73940;SDS011;62294;48.554;10.202;2023-03-23T06:11:05;16.88;;;9.30;;
73940;SDS011;62294;48.554;10.202;2023-03-23T06:13:31;18.83;;;8.93;;
73940;SDS011;62294;48.554;10.202;2023-03-23T06:15:57;17.00;;;7.88;;
73940;SDS011;62294;48.554;10.202;2023-03-23T06:18:23;16.08;;;8.48;;
73940;SDS011;62294;48.554;10.202;2023-03-23T06:20:49;19.15;;;9.48;;
73940;SDS011;62294;48.554;10.202;2023-03-23T06:23:15;17.90;;;9.65;;
73940;SDS011;62294;48.554;10.202;2023-03-23T06:25:42;19.83;;;10.23;;
73940;SDS011;62294;48.554;10.202;2023-03-23T06:28:07;23.63;;;11.73;;
73940;SDS011;62294;48.554;10.202;2023-03-23T06:30:34;24.98;;;11.38;;
73940;SDS011;62294;48.554;10.202;2023-03-23T06:33:00;25.58;;;11.30;;
73940;SDS011;62294;48.554;10.202;2023-03-23T06:35:27;19.77;;;10.38;;
73940;SDS011;62294;48.554;10.202;2023-03-23T06:37:52;20.90;;;10.07;;
73940;SDS011;62294;48.554;10.202;2023-03-23T06:40:19;18.98;;;10.77;;
73940;SDS011;62294;48.554;10.202;2023-03-23T06:42:46;19.17;;;10.73;;
73940;SDS011;62294;48.554;10.202;2023-03-23T06:45:11;18.85;;;10.50;;
73940;SDS011;62294;48.554;10.202;2023-03-23T06:47:37;16.08;;;9.32;;
73940;SDS011;62294;48.554;10.202;2023-03-23T06:50:03;16.88;;;8.70;;
73940;SDS011;62294;48.554;10.202;2023-03-23T06:52:29;18.15;;;8.27;;
73940;SDS011;62294;48.554;10.202;2023-03-23T06:54:56;14.00;;;8.02;;
73940;SDS011;62294;48.554;10.202;2023-03-23T06:57:21;14.82;;;7.50;;
73940;SDS011;62294;48.554;10.202;2023-03-23T06:59:46;13.85;;;6.57;;
73940;SDS011;62294;48.554;10.202;2023-03-23T07:02:13;10.55;;;5.80;;
73940;SDS011;62294;48.554;10.202;2023-03-23T07:04:39;11.07;;;5.85;;
73940;SDS011;62294;48.554;10.202;2023-03-23T07:07:06;9.07;;;5.10;;
73940;SDS011;62294;48.554;10.202;2023-03-23T07:09:33;9.57;;;5.80;;
73940;SDS011;62294;48.554;10.202;2023-03-23T07:11:59;7.85;;;4.15;;
73940;SDS011;62294;48.554;10.202;2023-03-23T07:14:24;11.27;;;5.45;;
73940;SDS011;62294;48.554;10.202;2023-03-23T07:16:51;11.93;;;6.68;;
73940;SDS011;62294;48.554;10.202;2023-03-23T07:19:16;10.50;;;5.18;;
73940;SDS011;62294;48.554;10.202;2023-03-23T07:21:41;9.30;;;5.28;;
73940;SDS011;62294;48.554;10.202;2023-03-23T07:24:13;9.68;;;4.75;;
73940;SDS011;62294;48.554;10.202;2023-03-23T07:26:41;8.98;;;4.78;;
73940;SDS011;62294;48.554;10.202;2023-03-23T07:29:08;6.13;;;4.20;;
73940;SDS011;62294;48.554;10.202;2023-03-23T07:31:34;9.02;;;4.60;;
73940;SDS011;62294;48.554;10.202;2023-03-23T07:34:00;5.75;;;3.45;;
73940;SDS011;62294;48.554;10.202;2023-03-23T07:36:27;7.72;;;4.35;;
73940;SDS011;62294;48.554;10.202;2023-03-23T07:38:52;7.68;;;4.28;;
73940;SDS011;62294;48.554;10.202;2023-03-23T07:41:18;6.95;;;4.50;;
73940;SDS011;62294;48.554;10.202;2023-03-23T07:43:45;8.90;;;5.60;;
73940;SDS011;62294;48.554;10.202;2023-03-23T07:46:11;9.88;;;5.07;;
73940;SDS011;62294;48.554;10.202;2023-03-23T07:48:37;7.40;;;4.50;;
73940;SDS011;62294;48.554;10.202;2023-03-23T07:51:04;7.60;;;4.93;;
73940;SDS011;62294;48.554;10.202;2023-03-23T07:53:30;8.98;;;4.07;;
73940;SDS011;62294;48.554;10.202;2023-03-23T07:55:55;10.38;;;4.38;;
73940;SDS011;62294;48.554;10.202;2023-03-23T07:58:21;8.32;;;4.25;;
73940;SDS011;62294;48.554;10.202;2023-03-23T08:00:46;8.48;;;4.15;;
73940;SDS011;62294;48.554;10.202;2023-03-23T08:03:14;6.20;;;3.63;;
73940;SDS011;62294;48.554;10.202;2023-03-23T08:05:40;7.85;;;4.05;;
73940;SDS011;62294;48.554;10.202;2023-03-23T08:08:07;6.55;;;3.83;;
73940;SDS011;62294;48.554;10.202;2023-03-23T08:10:34;8.48;;;3.85;;
73940;SDS011;62294;48.554;10.202;2023-03-23T08:13:01;7.18;;;4.38;;
73940;SDS011;62294;48.554;10.202;2023-03-23T08:15:26;6.60;;;3.67;;
73940;SDS011;62294;48.554;10.202;2023-03-23T08:17:53;7.90;;;3.90;;
73940;SDS011;62294;48.554;10.202;2023-03-23T08:20:19;10.98;;;5.15;;
73940;SDS011;62294;48.554;10.202;2023-03-23T08:22:52;8.48;;;4.90;;
73940;SDS011;62294;48.554;10.202;2023-03-23T08:25:20;8.00;;;4.20;;
73940;SDS011;62294;48.554;10.202;2023-03-23T08:27:47;7.18;;;3.60;;
73940;SDS011;62294;48.554;10.202;2023-03-23T08:30:14;8.52;;;3.53;;
73940;SDS011;62294;48.554;10.202;2023-03-23T08:32:41;8.13;;;3.72;;
73940;SDS011;62294;48.554;10.202;2023-03-23T08:35:08;8.80;;;4.18;;
73940;SDS011;62294;48.554;10.202;2023-03-23T08:37:35;8.95;;;4.15;;
73940;SDS011;62294;48.554;10.202;2023-03-23T08:40:02;6.97;;;3.75;;
73940;SDS011;62294;48.554;10.202;2023-03-23T08:42:35;8.50;;;3.78;;
73940;SDS011;62294;48.554;10.202;2023-03-23T08:45:05;8.52;;;3.88;;
73940;SDS011;62294;48.554;10.202;2023-03-23T08:47:32;6.15;;;3.53;;
73940;SDS011;62294;48.554;10.202;2023-03-23T08:49:58;7.68;;;4.05;;
73940;SDS011;62294;48.554;10.202;2023-03-23T08:52:24;5.78;;;4.88;;
73940;SDS011;62294;48.554;10.202;2023-03-23T08:54:50;4.97;;;3.22;;
73940;SDS011;62294;48.554;10.202;2023-03-23T08:57:15;6.40;;;3.53;;
73940;SDS011;62294;48.554;10.202;2023-03-23T08:59:41;6.95;;;4.15;;
73940;SDS011;62294;48.554;10.202;2023-03-23T09:02:09;4.72;;;3.03;;
73940;SDS011;62294;48.554;10.202;2023-03-23T09:04:37;7.60;;;3.83;;
73940;SDS011;62294;48.554;10.202;2023-03-23T09:07:04;5.47;;;3.05;;
73940;SDS011;62294;48.554;10.202;2023-03-23T09:09:30;5.82;;;2.53;;
73940;SDS011;62294;48.554;10.202;2023-03-23T09:11:57;8.05;;;3.60;;
73940;SDS011;62294;48.554;10.202;2023-03-23T09:14:23;7.00;;;3.00;;
73940;SDS011;62294;48.554;10.202;2023-03-23T09:16:48;7.32;;;3.45;;
73940;SDS011;62294;48.554;10.202;2023-03-23T09:19:13;10.35;;;3.30;;
73940;SDS011;62294;48.554;10.202;2023-03-23T09:21:39;6.45;;;3.40;;
73940;SDS011;62294;48.554;10.202;2023-03-23T09:24:05;5.47;;;3.10;;
73940;SDS011;62294;48.554;10.202;2023-03-23T09:26:30;4.40;;;2.90;;
73940;SDS011;62294;48.554;10.202;2023-03-23T09:28:57;5.88;;;2.60;;
73940;SDS011;62294;48.554;10.202;2023-03-23T09:31:23;6.50;;;3.10;;
73940;SDS011;62294;48.554;10.202;2023-03-23T09:33:51;5.40;;;3.40;;
73940;SDS011;62294;48.554;10.202;2023-03-23T09:36:18;4.97;;;3.10;;
73940;SDS011;62294;48.554;10.202;2023-03-23T09:38:46;7.20;;;3.10;;
73940;SDS011;62294;48.554;10.202;2023-03-23T09:46:59;7.47;;;3.30;;
73940;SDS011;62294;48.554;10.202;2023-03-23T09:49:50;4.10;;;2.63;;
73940;SDS011;62294;48.554;10.202;2023-03-23T09:52:19;6.70;;;2.80;;
73940;SDS011;62294;48.554;10.202;2023-03-23T09:54:47;6.78;;;3.33;;
73940;SDS011;62294;48.554;10.202;2023-03-23T09:59:56;6.30;;;3.47;;
73940;SDS011;62294;48.554;10.202;2023-03-23T10:02:46;7.40;;;3.83;;
73940;SDS011;62294;48.554;10.202;2023-03-23T10:07:56;6.03;;;3.47;;
73940;SDS011;62294;48.554;10.202;2023-03-23T10:10:24;5.40;;;2.80;;
73940;SDS011;62294;48.554;10.202;2023-03-23T10:13:02;4.95;;;3.00;;
73940;SDS011;62294;48.554;10.202;2023-03-23T10:15:34;5.47;;;3.20;;
73940;SDS011;62294;48.554;10.202;2023-03-23T10:18:14;7.53;;;3.53;;
73940;SDS011;62294;48.554;10.202;2023-03-23T10:20:50;4.05;;;3.13;;
73940;SDS011;62294;48.554;10.202;2023-03-23T10:23:36;8.77;;;3.78;;
73940;SDS011;62294;48.554;10.202;2023-03-23T10:26:12;3.05;;;2.40;;
73940;SDS011;62294;48.554;10.202;2023-03-23T10:29:26;3.17;;;2.13;;
73940;SDS011;62294;48.554;10.202;2023-03-23T10:31:58;3.55;;;2.22;;
73940;SDS011;62294;48.554;10.202;2023-03-23T10:34:33;3.45;;;2.40;;
73940;SDS011;62294;48.554;10.202;2023-03-23T10:37:28;6.15;;;2.33;;
73940;SDS011;62294;48.554;10.202;2023-03-23T10:40:02;2.45;;;1.60;;
73940;SDS011;62294;48.554;10.202;2023-03-23T10:42:35;3.03;;;2.08;;
73940;SDS011;62294;48.554;10.202;2023-03-23T10:45:36;3.70;;;2.22;;
73940;SDS011;62294;48.554;10.202;2023-03-23T10:47:59;5.95;;;2.58;;
73940;SDS011;62294;48.554;10.202;2023-03-23T10:50:43;3.63;;;2.63;;
73940;SDS011;62294;48.554;10.202;2023-03-23T10:53:16;2.53;;;2.03;;
73940;SDS011;62294;48.554;10.202;2023-03-23T10:55:44;9.27;;;2.55;;
73940;SDS011;62294;48.554;10.202;2023-03-23T10:58:11;2.22;;;1.80;;
73940;SDS011;62294;48.554;10.202;2023-03-23T11:00:48;2.00;;;1.60;;
73940;SDS011;62294;48.554;10.202;2023-03-23T11:05:50;3.25;;;2.00;;
73940;SDS011;62294;48.554;10.202;2023-03-23T11:08:22;4.53;;;1.88;;
73940;SDS011;62294;48.554;10.202;2023-03-23T11:10:54;2.35;;;1.60;;
73940;SDS011;62294;48.554;10.202;2023-03-23T11:13:23;2.13;;;1.65;;
73940;SDS011;62294;48.554;10.202;2023-03-23T11:15:55;2.10;;;1.48;;
73940;SDS011;62294;48.554;10.202;2023-03-23T11:18:21;1.98;;;1.30;;
73940;SDS011;62294;48.554;10.202;2023-03-23T11:21:08;2.83;;;1.30;;
73940;SDS011;62294;48.554;10.202;2023-03-23T11:23:38;1.10;;;1.00;;
73940;SDS011;62294;48.554;10.202;2023-03-23T11:31:21;1.58;;;1.20;;
73940;SDS011;62294;48.554;10.202;2023-03-23T11:33:56;1.33;;;1.23;;
73940;SDS011;62294;48.554;10.202;2023-03-23T11:36:36;2.85;;;1.38;;
73940;SDS011;62294;48.554;10.202;2023-03-23T11:39:26;3.17;;;1.30;;
73940;SDS011;62294;48.554;10.202;2023-03-23T11:42:01;1.40;;;1.23;;
73940;SDS011;62294;48.554;10.202;2023-03-23T11:44:40;2.63;;;1.50;;
73940;SDS011;62294;48.554;10.202;2023-03-23T11:47:10;2.05;;;1.40;;
73940;SDS011;62294;48.554;10.202;2023-03-23T11:50:30;1.65;;;1.30;;
73940;SDS011;62294;48.554;10.202;2023-03-23T11:58:12;3.22;;;1.55;;
73940;SDS011;62294;48.554;10.202;2023-03-23T12:00:40;1.70;;;1.50;;
73940;SDS011;62294;48.554;10.202;2023-03-23T12:03:32;2.08;;;1.38;;
73940;SDS011;62294;48.554;10.202;2023-03-23T12:06:05;5.68;;;1.50;;
73940;SDS011;62294;48.554;10.202;2023-03-23T12:08:55;2.53;;;1.40;;
73940;SDS011;62294;48.554;10.202;2023-03-23T12:17:14;5.15;;;1.55;;
73940;SDS011;62294;48.554;10.202;2023-03-23T12:25:23;1.67;;;1.17;;
73940;SDS011;62294;48.554;10.202;2023-03-23T12:30:45;2.72;;;1.30;;
73940;SDS011;62294;48.554;10.202;2023-03-23T12:41:27;2.58;;;1.40;;
73940;SDS011;62294;48.554;10.202;2023-03-23T12:44:03;2.42;;;1.50;;
73940;SDS011;62294;48.554;10.202;2023-03-23T12:49:39;4.75;;;1.65;;
73940;SDS011;62294;48.554;10.202;2023-03-23T12:52:19;3.55;;;1.30;;
73940;SDS011;62294;48.554;10.202;2023-03-23T12:57:27;3.20;;;1.42;;
73940;SDS011;62294;48.554;10.202;2023-03-23T13:02:59;3.72;;;1.65;;
73940;SDS011;62294;48.554;10.202;2023-03-23T13:05:35;3.28;;;1.58;;
73940;SDS011;62294;48.554;10.202;2023-03-23T13:08:09;1.30;;;1.20;;
73940;SDS011;62294;48.554;10.202;2023-03-23T13:10:41;3.30;;;1.55;;
73940;SDS011;62294;48.554;10.202;2023-03-23T13:13:14;2.75;;;1.77;;
73940;SDS011;62294;48.554;10.202;2023-03-23T13:15:46;1.77;;;1.48;;
73940;SDS011;62294;48.554;10.202;2023-03-23T13:21:35;3.00;;;1.50;;
73940;SDS011;62294;48.554;10.202;2023-03-23T13:24:09;1.55;;;1.40;;
73940;SDS011;62294;48.554;10.202;2023-03-23T13:26:39;3.75;;;1.70;;
73940;SDS011;62294;48.554;10.202;2023-03-23T13:29:20;2.47;;;1.60;;
73940;SDS011;62294;48.554;10.202;2023-03-23T13:31:49;2.08;;;1.55;;
73940;SDS011;62294;48.554;10.202;2023-03-23T13:37:03;4.47;;;1.85;;
73940;SDS011;62294;48.554;10.202;2023-03-23T13:39:47;2.60;;;1.52;;
73940;SDS011;62294;48.554;10.202;2023-03-23T13:45:18;5.55;;;2.80;;
73940;SDS011;62294;48.554;10.202;2023-03-23T13:47:44;2.03;;;1.63;;
73940;SDS011;62294;48.554;10.202;2023-03-23T13:50:23;5.07;;;2.05;;
73940;SDS011;62294;48.554;10.202;2023-03-23T13:52:53;5.07;;;1.40;;
73940;SDS011;62294;48.554;10.202;2023-03-23T14:00:45;4.05;;;1.50;;
73940;SDS011;62294;48.554;10.202;2023-03-23T14:03:14;9.73;;;1.95;;
73940;SDS011;62294;48.554;10.202;2023-03-23T14:10:59;2.33;;;1.65;;
73940;SDS011;62294;48.554;10.202;2023-03-23T14:18:36;2.10;;;1.40;;
73940;SDS011;62294;48.554;10.202;2023-03-23T14:21:04;2.53;;;1.50;;
73940;SDS011;62294;48.554;10.202;2023-03-23T14:23:31;2.08;;;1.55;;
73940;SDS011;62294;48.554;10.202;2023-03-23T14:25:59;2.45;;;1.65;;
73940;SDS011;62294;48.554;10.202;2023-03-23T14:28:38;3.13;;;1.73;;
73940;SDS011;62294;48.554;10.202;2023-03-23T14:33:48;2.75;;;1.80;;
73940;SDS011;62294;48.554;10.202;2023-03-23T14:36:23;2.75;;;1.70;;
73940;SDS011;62294;48.554;10.202;2023-03-23T14:38:59;6.05;;;2.38;;
73940;SDS011;62294;48.554;10.202;2023-03-23T14:41:28;3.33;;;2.30;;
73940;SDS011;62294;48.554;10.202;2023-03-23T14:43:56;4.65;;;2.67;;
73940;SDS011;62294;48.554;10.202;2023-03-23T14:46:22;6.18;;;2.85;;
73940;SDS011;62294;48.554;10.202;2023-03-23T14:48:49;4.97;;;2.60;;
73940;SDS011;62294;48.554;10.202;2023-03-23T14:51:19;3.85;;;2.50;;
73940;SDS011;62294;48.554;10.202;2023-03-23T14:53:45;6.10;;;3.25;;
73940;SDS011;62294;48.554;10.202;2023-03-23T14:56:14;6.40;;;2.72;;
73940;SDS011;62294;48.554;10.202;2023-03-23T14:58:44;4.43;;;2.85;;
73940;SDS011;62294;48.554;10.202;2023-03-23T15:01:13;4.78;;;2.88;;
73940;SDS011;62294;48.554;10.202;2023-03-23T15:03:49;5.05;;;3.20;;
73940;SDS011;62294;48.554;10.202;2023-03-23T15:06:19;6.90;;;3.23;;
73940;SDS011;62294;48.554;10.202;2023-03-23T15:08:47;5.13;;;2.90;;
73940;SDS011;62294;48.554;10.202;2023-03-23T15:13:44;4.82;;;2.40;;
73940;SDS011;62294;48.554;10.202;2023-03-23T15:16:20;6.57;;;2.60;;
73940;SDS011;62294;48.554;10.202;2023-03-23T15:19:02;7.50;;;2.80;;
73940;SDS011;62294;48.554;10.202;2023-03-23T15:21:47;6.18;;;2.85;;
73940;SDS011;62294;48.554;10.202;2023-03-23T15:24:23;7.32;;;3.13;;
73940;SDS011;62294;48.554;10.202;2023-03-23T15:26:52;4.10;;;2.15;;
73940;SDS011;62294;48.554;10.202;2023-03-23T15:29:19;4.50;;;2.40;;
73940;SDS011;62294;48.554;10.202;2023-03-23T15:31:47;5.18;;;2.72;;
73940;SDS011;62294;48.554;10.202;2023-03-23T15:34:20;5.95;;;2.70;;
73940;SDS011;62294;48.554;10.202;2023-03-23T15:36:51;3.60;;;2.00;;
73940;SDS011;62294;48.554;10.202;2023-03-23T15:39:21;3.78;;;2.20;;
73940;SDS011;62294;48.554;10.202;2023-03-23T15:41:48;4.38;;;2.80;;
73940;SDS011;62294;48.554;10.202;2023-03-23T15:44:22;2.88;;;2.10;;
73940;SDS011;62294;48.554;10.202;2023-03-23T15:47:03;3.60;;;2.38;;
73940;SDS011;62294;48.554;10.202;2023-03-23T15:49:29;4.15;;;2.40;;
73940;SDS011;62294;48.554;10.202;2023-03-23T15:51:55;3.90;;;2.20;;
73940;SDS011;62294;48.554;10.202;2023-03-23T15:54:20;5.32;;;2.22;;
73940;SDS011;62294;48.554;10.202;2023-03-23T15:56:46;3.88;;;2.22;;
73940;SDS011;62294;48.554;10.202;2023-03-23T15:59:11;3.78;;;2.13;;
73940;SDS011;62294;48.554;10.202;2023-03-23T16:01:39;7.68;;;2.33;;
73940;SDS011;62294;48.554;10.202;2023-03-23T16:04:08;3.33;;;1.90;;
73940;SDS011;62294;48.554;10.202;2023-03-23T16:06:38;3.50;;;2.05;;
73940;SDS011;62294;48.554;10.202;2023-03-23T16:09:05;6.90;;;2.83;;
73940;SDS011;62294;48.554;10.202;2023-03-23T16:11:32;3.55;;;2.10;;
73940;SDS011;62294;48.554;10.202;2023-03-23T16:14:00;3.38;;;1.77;;
73940;SDS011;62294;48.554;10.202;2023-03-23T16:16:28;4.50;;;1.90;;
73940;SDS011;62294;48.554;10.202;2023-03-23T16:18:58;3.25;;;2.00;;
73940;SDS011;62294;48.554;10.202;2023-03-23T16:21:27;5.82;;;2.25;;
73940;SDS011;62294;48.554;10.202;2023-03-23T16:23:53;4.03;;;2.17;;
73940;SDS011;62294;48.554;10.202;2023-03-23T16:26:21;3.67;;;2.15;;
73940;SDS011;62294;48.554;10.202;2023-03-23T16:28:48;4.10;;;2.08;;
73940;SDS011;62294;48.554;10.202;2023-03-23T16:31:16;5.75;;;2.20;;
73940;SDS011;62294;48.554;10.202;2023-03-23T16:33:43;3.70;;;2.20;;